Time;durP1;ratioP1;P1;durP2;ratioP2;P2;SDS_P1;SDS_P2;PMS_P1;PMS_P2;Temp;Humidity;BMP_temperature;BMP_pressure;BME280_temperature;BME280_humidity;BME280_pressure;Samples;Min_cycle;Max_cycle;Signal;HPM_P1;HPM_P2
2022/05/03 00:00:22;;;;;;;8.48;5.60;;;10.50;1.00;;;10.67;59.82;101109.19;4901492;29;20200;-69
2022/05/03 00:03:09;;;;;;;7.47;6.60;;;10.60;1.00;;;10.72;59.02;101117.53;4915810;29;20226;-68
2022/05/03 00:05:58;;;;;;;6.50;5.35;;;10.60;1.00;;;10.70;58.88;101114.19;4901117;29;20174;-67
2022/05/03 00:08:37;;;;;;;9.45;5.25;;;10.60;1.00;;;10.46;59.14;101106.50;4902041;29;20576;-67
2022/05/03 00:11:14;;;;;;;6.53;5.10;;;10.50;1.00;;;10.50;59.16;101118.63;4900760;29;20772;-67
2022/05/03 00:13:51;;;;;;;5.95;5.35;;;10.50;1.00;;;10.42;59.02;101113.34;4900648;29;20223;-66
2022/05/03 00:16:22;;;;;;;6.38;5.07;;;10.40;1.00;;;10.36;59.48;101100.63;4901032;29;20178;-67
2022/05/03 00:18:51;;;;;;;5.70;5.10;;;10.40;1.00;;;10.34;59.16;101097.28;4901092;29;20193;-67
2022/05/03 00:21:21;;;;;;;7.80;5.40;;;10.30;1.00;;;10.19;59.77;101104.63;4900952;29;20643;-69
2022/05/03 00:23:50;;;;;;;6.32;5.25;;;10.20;1.00;;;10.14;60.10;101090.81;4900932;29;20218;-67
2022/05/03 00:26:20;;;;;;;8.40;6.60;;;10.20;1.00;;;10.15;60.05;101089.78;4899684;29;20182;-67
2022/05/03 00:28:52;;;;;;;6.72;5.60;;;10.10;1.00;;;10.21;59.98;101086.34;4900973;29;20678;-67
2022/05/03 00:31:22;;;;;;;6.10;5.53;;;10.10;1.00;;;10.11;60.32;101088.50;4900817;29;20213;-68
2022/05/03 00:33:52;;;;;;;6.93;5.85;;;10.10;1.00;;;10.28;60.27;101087.22;4900947;29;20218;-68
2022/05/03 00:36:20;;;;;;;6.05;5.30;;;10.20;1.00;;;10.25;60.27;101093.03;4900566;29;20690;-67
2022/05/03 00:38:50;;;;;;;5.38;4.68;;;10.20;1.00;;;10.11;60.64;101081.25;4900315;29;20186;-67
2022/05/03 00:41:34;;;;;;;7.07;4.85;;;10.10;1.00;;;10.18;60.31;101086.72;4900629;29;20183;-69
2022/05/03 00:47:20;;;;;;;6.50;5.55;;;10.20;1.00;;;10.09;60.63;101082.44;4900476;29;20640;-68
2022/05/03 00:50:03;;;;;;;6.10;4.68;;;10.10;1.00;;;10.03;60.63;101084.06;4900379;29;20277;-67
2022/05/03 00:52:42;;;;;;;7.78;5.03;;;10.10;1.00;;;9.96;60.91;101092.13;4900339;29;20237;-68
2022/05/03 00:55:48;;;;;;;7.60;5.43;;;10.00;1.00;;;9.97;61.24;101074.03;4900367;29;20656;-67
2022/05/03 00:58:48;;;;;;;7.72;5.60;;;10.00;1.00;;;9.96;60.57;101075.91;4895634;29;20665;-68
2022/05/03 01:01:31;;;;;;;7.35;4.72;;;10.00;1.00;;;9.93;61.09;101078.97;4900166;29;20213;-70
2022/05/03 01:04:18;;;;;;;6.30;5.70;;;9.90;1.00;;;9.87;61.31;101078.94;4899936;29;20698;-67
2022/05/03 01:06:56;;;;;;;6.32;5.57;;;9.80;1.00;;;9.61;62.06;101074.09;4899958;29;20190;-68
2022/05/03 01:09:34;;;;;;;7.07;5.18;;;9.70;1.00;;;9.65;62.14;101075.38;4900060;29;20178;-68
2022/05/03 01:12:23;;;;;;;6.00;5.18;;;9.60;1.00;;;9.58;62.30;101074.47;4900296;29;20675;-67
2022/05/03 01:15:20;;;;;;;6.72;4.82;;;9.60;1.00;;;9.35;63.05;101071.06;4900517;29;20644;-67
2022/05/03 01:18:07;;;;;;;7.00;6.30;;;9.50;1.00;;;9.35;63.16;101071.91;4899716;29;20213;-67
2022/05/03 01:20:49;;;;;;;7.75;6.30;;;9.40;1.00;;;9.53;62.71;101066.94;4900173;29;20297;-67
2022/05/03 01:23:57;;;;;;;6.35;5.50;;;9.50;1.00;;;9.65;62.42;101074.53;4900019;29;20250;-67
2022/05/03 01:27:08;;;;;;;7.43;6.65;;;9.50;1.00;;;9.54;62.85;101078.56;4899724;29;20183;-68
2022/05/03 01:29:38;;;;;;;8.02;5.13;;;9.50;1.00;;;9.55;62.91;101074.84;4899953;29;20513;-69
2022/05/03 01:32:10;;;;;;;5.97;4.88;;;9.50;1.00;;;9.46;62.94;101082.22;4899728;29;20265;-67
2022/05/03 01:34:41;;;;;;;7.07;6.38;;;9.50;1.00;;;9.35;63.54;101076.47;4899853;29;20191;-67
2022/05/03 01:37:36;;;;;;;8.00;5.55;;;9.40;1.00;;;9.28;63.62;101078.28;4899641;29;20198;-67
2022/05/03 01:40:08;;;;;;;5.90;5.40;;;9.30;1.00;;;9.30;63.73;101081.59;4899445;29;20183;-67
2022/05/03 01:43:08;;;;;;;9.82;5.70;;;9.30;1.00;;;9.05;64.27;101079.22;4899468;29;20276;-67
2022/05/03 01:45:58;;;;;;;5.57;5.07;;;9.10;1.00;;;9.11;64.39;101075.78;4899747;29;20170;-68
2022/05/03 01:51:57;;;;;;;8.80;6.53;;;9.10;1.00;;;9.05;64.58;101079.22;4899130;29;20221;-67
2022/05/03 01:55:10;;;;;;;11.00;6.80;;;9.10;1.00;;;9.09;64.91;101085.09;4899049;29;20262;-67
2022/05/03 01:58:12;;;;;;;7.68;5.65;;;9.10;1.00;;;9.11;64.56;101075.78;4898502;29;20261;-67
2022/05/03 02:00:53;;;;;;;8.88;7.18;;;9.10;1.00;;;9.05;64.83;101075.72;4899208;29;20178;-68
2022/05/03 02:03:30;;;;;;;7.40;6.40;;;9.10;1.00;;;9.18;64.77;101073.16;4899073;29;20248;-68
2022/05/03 02:06:09;;;;;;;8.43;6.95;;;9.10;1.00;;;9.26;64.27;101067.66;4898888;29;20186;-67
2022/05/03 02:08:53;;;;;;;8.23;5.80;;;9.10;1.00;;;9.29;64.25;101061.06;4899166;29;20194;-67
2022/05/03 02:11:51;;;;;;;9.60;6.75;;;9.30;1.00;;;9.38;63.98;101063.44;4898921;29;20202;-66
2022/05/03 02:14:47;;;;;;;8.20;6.57;;;9.30;1.00;;;9.40;63.88;101060.53;4898918;29;20210;-67
2022/05/03 02:18:04;;;;;;;9.55;6.43;;;9.40;1.00;;;9.32;63.81;101058.78;4913349;29;20259;-67
2022/05/03 02:21:11;;;;;;;7.70;6.20;;;9.30;1.00;;;9.33;63.82;101059.63;4878093;29;20199;-68
2022/05/03 02:24:01;;;;;;;7.88;6.13;;;9.30;1.00;;;9.14;64.42;101058.38;4898496;29;20371;-66
2022/05/03 02:26:49;;;;;;;7.20;6.57;;;9.20;1.00;;;9.06;64.95;101053.91;4898953;29;20600;-68
2022/05/03 02:29:28;;;;;;;10.20;5.72;;;9.20;1.00;;;9.09;65.01;101058.94;4898412;29;20548;-68
2022/05/03 02:32:05;;;;;;;9.82;6.55;;;9.10;1.00;;;9.01;65.25;101072.53;4898317;29;20684;-67
2022/05/03 02:34:48;;;;;;;7.43;5.45;;;9.00;1.00;;;9.05;65.12;101063.03;4898455;29;20174;-67
2022/05/03 02:37:20;;;;;;;6.60;5.90;;;9.10;1.00;;;9.01;65.36;101050.09;4898490;29;20722;-67
2022/05/03 02:39:57;;;;;;;7.60;6.13;;;9.00;1.00;;;8.93;65.38;101063.69;4898475;29;20178;-68
2022/05/03 02:42:26;;;;;;;8.15;5.93;;;9.00;1.00;;;8.95;65.38;101067.91;4898227;29;20210;-67
2022/05/03 02:44:57;;;;;;;7.95;6.07;;;9.00;1.00;;;8.96;65.60;101066.00;4898428;29;20548;-67
2022/05/03 02:47:36;;;;;;;7.88;6.97;;;9.00;1.00;;;8.91;65.62;101066.56;4898141;29;20257;-67
2022/05/03 02:50:13;;;;;;;7.50;4.93;;;8.90;1.00;;;8.94;65.44;101068.91;4898348;29;20266;-67
2022/05/03 02:52:54;;;;;;;8.85;5.78;;;8.90;1.00;;;8.84;65.91;101071.06;4898215;29;20221;-67
2022/05/03 02:55:36;;;;;;;7.70;6.00;;;8.90;1.00;;;8.72;66.31;101072.53;4898509;29;20538;-68
2022/05/03 02:58:19;;;;;;;6.70;5.50;;;8.80;1.00;;;8.84;65.85;101062.97;4896965;29;20190;-68
2022/05/03 03:04:05;;;;;;;7.60;5.70;;;8.70;1.00;;;8.64;66.40;101072.63;4898572;29;20218;-68
2022/05/03 03:06:40;;;;;;;5.90;5.30;;;8.70;1.00;;;8.61;66.55;101073.00;4898109;29;20177;-67
2022/05/03 03:09:09;;;;;;;7.78;5.53;;;8.70;1.00;;;8.69;66.29;101076.44;4898187;29;20206;-68
2022/05/03 03:11:57;;;;;;;6.43;5.80;;;8.70;1.00;;;8.52;66.77;101076.81;4898167;29;20194;-67
2022/05/03 03:14:40;;;;;;;8.07;6.28;;;8.60;1.00;;;8.50;67.01;101084.25;4900005;29;20216;-68
2022/05/03 03:17:10;;;;;;;10.73;6.75;;;8.50;1.00;;;8.53;66.68;101075.78;4908308;29;20178;-68
2022/05/03 03:20:06;;;;;;;6.47;5.63;;;8.60;1.00;;;8.45;66.94;101071.31;4900367;29;20182;-67
2022/05/03 03:22:42;;;;;;;10.13;6.10;;;8.50;1.00;;;8.51;67.00;101077.84;4899179;29;20306;-67
2022/05/03 03:25:13;;;;;;;6.40;5.80;;;8.50;1.00;;;8.48;67.21;101079.03;4898620;29;20706;-67
2022/05/03 03:27:45;;;;;;;6.50;5.15;;;8.50;1.00;;;8.54;66.82;101072.06;4898189;29;20259;-67
2022/05/03 03:30:22;;;;;;;6.70;5.93;;;8.60;1.00;;;8.44;67.20;101071.50;4897878;29;20182;-67
2022/05/03 03:32:53;;;;;;;8.13;5.13;;;8.50;1.00;;;8.49;67.19;101074.47;4898244;29;20683;-67
2022/05/03 03:35:22;;;;;;;8.65;6.25;;;8.60;1.00;;;8.57;67.17;101075.22;4897823;29;20178;-67
2022/05/03 03:37:57;;;;;;;8.48;6.00;;;8.60;1.00;;;8.62;66.93;101077.38;4897988;29;20179;-67
2022/05/03 03:40:27;;;;;;;7.72;6.20;;;8.60;1.00;;;8.70;66.53;101082.69;4898074;29;20174;-67
2022/05/03 03:42:56;;;;;;;6.03;5.03;;;8.70;1.00;;;8.69;66.66;101089.09;4898366;29;20294;-66
2022/05/03 03:45:25;;;;;;;6.60;5.88;;;8.70;1.00;;;8.80;66.19;101090.50;4899184;29;20245;-68
2022/05/03 03:47:55;;;;;;;11.38;7.95;;;8.80;1.00;;;8.84;66.13;101091.81;4899378;29;20191;-68
2022/05/03 03:50:27;;;;;;;8.73;7.05;;;8.80;1.00;;;8.89;65.91;101089.38;4900156;29;20184;-67
2022/05/03 03:52:58;;;;;;;11.85;8.13;;;8.90;1.00;;;9.03;65.20;101091.25;4899356;29;20221;-67
2022/05/03 03:55:28;;;;;;;7.40;6.55;;;8.90;1.00;;;8.90;65.55;101086.50;4901579;29;20246;-67
2022/05/03 03:57:58;;;;;;;10.05;6.85;;;8.90;1.00;;;8.94;65.70;101086.97;4906199;29;20181;-67
2022/05/03 04:00:27;;;;;;;8.02;5.78;;;8.90;1.00;;;9.08;65.29;101083.41;4908585;29;20178;-68
2022/05/03 04:02:57;;;;;;;7.25;5.80;;;9.00;1.00;;;9.18;64.64;101077.72;4905169;29;20281;-66
2022/05/03 04:05:28;;;;;;;12.52;7.38;;;9.10;1.00;;;9.05;65.56;101084.63;4909243;29;20203;-67
2022/05/03 04:07:58;;;;;;;8.52;6.35;;;9.10;1.00;;;9.18;64.84;101078.56;4905185;29;20258;-67
2022/05/03 04:10:26;;;;;;;7.50;6.68;;;9.10;1.00;;;9.20;65.14;101087.31;4900634;29;20182;-68
2022/05/03 04:12:55;;;;;;;11.95;6.38;;;9.20;1.00;;;9.34;64.49;101075.66;4901069;29;20784;-68
2022/05/03 04:15:25;;;;;;;8.48;6.65;;;9.20;1.00;;;9.59;63.82;101076.97;4905119;29;20273;-68
2022/05/03 04:17:54;;;;;;;6.63;5.72;;;9.30;1.00;;;9.72;63.18;101080.84;4903235;29;20275;-68
2022/05/03 04:20:23;;;;;;;5.85;5.25;;;9.40;1.00;;;10.01;62.14;101086.97;4902081;29;20265;-67
2022/05/03 04:22:51;;;;;;;8.32;6.18;;;9.60;1.00;;;9.91;62.41;101085.63;4901498;29;20217;-67
2022/05/03 04:25:22;;;;;;;8.23;6.28;;;9.60;1.00;;;10.10;61.96;101092.25;4895246;29;20195;-67
2022/05/03 04:27:50;;;;;;;9.40;6.22;;;9.70;1.00;;;10.67;60.58;101087.53;4882251;29;20190;-67
2022/05/03 04:30:19;;;;;;;12.32;8.43;;;10.00;1.00;;;10.63;59.80;101085.41;4882291;29;20270;-67
2022/05/03 04:32:48;;;;;;;7.22;6.43;;;10.10;1.00;;;10.32;60.55;101092.03;4883649;29;20207;-67
2022/05/03 04:35:16;;;;;;;9.85;7.05;;;10.20;1.00;;;10.19;61.46;101096.50;4884684;29;20179;-67
2022/05/03 04:37:45;;;;;;;6.90;5.72;;;10.20;1.00;;;10.13;61.30;101094.53;4881741;29;20183;-68
2022/05/03 04:40:14;;;;;;;6.82;5.63;;;10.10;1.00;;;10.07;61.25;101106.16;4881848;29;20207;-68
2022/05/03 04:42:47;;;;;;;7.63;6.18;;;10.00;1.00;;;10.05;61.02;101119.88;4881921;29;20210;-68
2022/05/03 04:45:16;;;;;;;8.15;5.40;;;10.00;1.00;;;10.10;61.64;101120.13;4881784;29;20191;-68
2022/05/03 04:47:45;;;;;;;7.55;6.40;;;10.00;1.00;;;10.17;61.18;101128.31;4882079;29;20203;-68
2022/05/03 04:50:13;;;;;;;7.28;4.95;;;10.10;1.00;;;10.37;60.98;101123.91;4881894;29;20223;-67
2022/05/03 04:52:42;;;;;;;8.40;6.28;;;10.20;1.00;;;10.44;60.88;101124.81;4881968;29;20219;-67
2022/05/03 04:55:11;;;;;;;6.43;5.18;;;10.30;1.00;;;10.44;60.71;101127.53;4881985;29;20186;-67
2022/05/03 04:57:39;;;;;;;9.25;5.78;;;10.30;1.00;;;10.44;59.68;101124.81;4881274;29;20203;-68
2022/05/03 05:00:11;;;;;;;7.15;5.95;;;10.40;1.00;;;10.51;59.31;101128.41;4882080;29;20708;-68
2022/05/03 05:02:39;;;;;;;6.60;4.80;;;10.40;1.00;;;10.36;59.38;101120.38;4881370;29;20226;-68
2022/05/03 05:05:09;;;;;;;6.32;5.13;;;10.30;1.00;;;10.41;59.54;101130.59;4956072;23;20283;-69
2022/05/03 05:07:38;;;;;;;6.38;3.95;;;10.40;1.00;;;10.49;59.39;101125.06;4976984;28;20278;-69
2022/05/03 05:10:27;;;;;;;6.20;4.28;;;10.40;1.00;;;10.59;58.44;101131.00;4980536;28;20198;-68
2022/05/03 05:12:57;;;;;;;7.82;5.60;;;10.40;1.00;;;10.74;58.12;101131.72;4982721;28;20187;-69
2022/05/03 05:15:27;;;;;;;8.20;4.87;;;10.60;1.00;;;10.83;58.31;101124.28;4960391;28;20218;-69
2022/05/03 05:17:58;;;;;;;8.88;4.28;;;10.70;1.00;;;11.02;57.86;101122.72;4958315;28;20415;-69
2022/05/03 05:20:27;;;;;;;9.93;6.00;;;10.80;1.00;;;11.16;57.64;101125.31;4958250;28;20184;-68
2022/05/03 05:22:56;;;;;;;10.40;5.40;;;10.90;1.00;;;11.38;56.84;101131.44;4955078;28;20979;-69
2022/05/03 05:25:46;;;;;;;8.35;5.13;;;11.00;1.00;;;11.47;56.51;101130.25;4954683;28;20507;-68
2022/05/03 05:28:16;;;;;;;6.20;5.23;;;11.10;1.00;;;11.54;55.46;101122.13;4955023;28;20231;-69
2022/05/03 05:30:47;;;;;;;8.67;5.10;;;11.30;1.00;;;11.53;55.48;101121.31;4955119;28;20476;-69
2022/05/03 05:33:16;;;;;;;9.30;5.50;;;11.30;1.00;;;11.63;54.99;101126.34;4954968;28;20466;-71
2022/05/03 05:35:45;;;;;;;4.53;4.10;;;11.50;1.00;;;11.71;54.18;101124.28;4955021;28;20432;-70
2022/05/03 05:38:15;;;;;;;6.30;4.33;;;11.50;1.00;;;11.73;53.81;101121.41;4955071;28;20451;-68
2022/05/03 05:40:46;;;;;;;7.40;4.00;;;11.40;1.00;;;11.82;52.65;101125.59;4955139;28;20435;-68
2022/05/03 05:43:15;;;;;;;4.63;4.00;;;11.50;1.00;;;11.85;52.62;101130.63;4955319;28;20956;-69
2022/05/03 05:45:46;;;;;;;6.00;4.30;;;11.60;1.00;;;11.77;53.36;101134.34;4954944;29;20542;-70
2022/05/03 05:48:15;;;;;;;5.17;4.20;;;11.60;1.00;;;11.87;52.89;101133.13;4954999;28;20645;-69
2022/05/03 05:50:44;;;;;;;6.03;4.30;;;11.70;1.00;;;11.87;52.28;101138.53;4955040;28;20420;-69
2022/05/03 05:55:59;;;;;;;6.03;3.87;;;11.70;1.00;;;12.14;51.97;101137.56;4955924;28;20536;-69
2022/05/03 05:58:27;;;;;;;5.57;4.60;;;11.90;1.00;;;12.22;51.45;101133.81;4956504;28;20463;-68
2022/05/03 06:00:58;;;;;;;5.30;4.00;;;12.00;1.00;;;12.25;51.03;101146.97;4953495;28;20490;-70
2022/05/03 06:03:28;;;;;;;5.90;3.90;;;12.00;1.00;;;12.40;50.73;101144.88;4954550;28;20423;-71
2022/05/03 06:05:58;;;;;;;4.17;3.33;;;12.10;1.00;;;12.15;49.77;101141.97;4954385;29;20758;-69
2022/05/03 06:08:27;;;;;;;4.30;2.50;;;12.10;1.00;;;12.01;50.75;101151.09;4954701;28;20471;-69
2022/05/03 06:10:58;;;;;;;5.20;3.23;;;11.90;1.00;;;12.10;50.88;101158.03;4953430;29;20427;-69
2022/05/03 06:13:27;;;;;;;7.53;3.07;;;11.90;1.00;;;12.09;50.79;101153.63;4954475;28;20420;-69
2022/05/03 06:16:08;;;;;;;4.40;3.30;;;11.90;1.00;;;12.38;49.78;101147.81;4954188;28;20424;-69
2022/05/03 06:18:37;;;;;;;3.70;2.80;;;12.00;1.00;;;12.81;48.16;101150.09;4954257;28;20431;-69
2022/05/03 06:21:07;;;;;;;3.53;2.60;;;12.30;1.00;;;13.01;47.68;101153.63;4954283;29;20427;-69
2022/05/03 06:23:38;;;;;;;8.00;3.80;;;12.60;1.00;;;13.24;47.44;101159.47;4954190;28;20514;-69
2022/05/03 06:26:09;;;;;;;4.03;2.33;;;12.90;1.00;;;13.19;47.57;101144.84;4954242;28;20467;-70
2022/05/03 06:28:45;;;;;;;4.13;2.80;;;12.90;1.00;;;13.43;46.93;101158.56;4954551;28;20416;-68
2022/05/03 06:31:19;;;;;;;5.83;2.30;;;13.10;1.00;;;13.56;46.33;101160.38;4954120;28;20412;-69
2022/05/03 06:33:48;;;;;;;3.90;2.40;;;13.30;1.00;;;13.61;46.60;101157.84;4952720;28;20573;-69
2022/05/03 06:36:17;;;;;;;4.57;2.80;;;13.40;1.00;;;13.78;46.75;101159.06;4954179;28;20518;-68
2022/05/03 06:38:46;;;;;;;3.40;2.47;;;13.40;1.00;;;13.98;46.01;101161.69;4954297;29;20487;-71
2022/05/03 06:41:16;;;;;;;2.83;2.30;;;13.60;1.00;;;13.81;46.40;101161.31;4954440;28;20435;-68
2022/05/03 06:43:45;;;;;;;2.20;2.00;;;13.70;1.00;;;13.91;46.56;101167.13;4954021;28;20443;-67
2022/05/03 06:46:15;;;;;;;3.33;2.40;;;13.70;1.00;;;14.03;46.14;101169.19;4954210;28;20454;-68
2022/05/03 06:48:44;;;;;;;3.47;2.27;;;13.80;1.00;;;13.86;46.23;101174.28;4953784;29;20936;-68
2022/05/03 06:51:13;;;;;;;3.27;2.97;;;13.70;1.00;;;13.91;46.55;101174.47;4954294;28;20424;-69
2022/05/03 06:53:42;;;;;;;5.50;2.77;;;13.80;1.00;;;13.63;46.46;101173.97;4954220;28;20833;-69
2022/05/03 06:56:11;;;;;;;2.70;1.87;;;13.60;1.00;;;13.83;46.38;101172.00;4954143;28;20424;-69
2022/05/03 06:58:45;;;;;;;5.10;3.20;;;13.70;1.00;;;13.61;47.23;101170.63;4956823;29;20428;-71
2022/05/03 07:01:17;;;;;;;4.77;1.80;;;13.50;1.00;;;13.86;46.85;101177.00;4954114;28;20526;-68
2022/05/03 07:03:45;;;;;;;4.70;1.60;;;13.60;1.00;;;14.04;46.54;101179.81;4953744;28;20456;-69
2022/05/03 07:06:20;;;;;;;4.40;3.23;;;13.80;1.00;;;14.14;46.49;101180.19;4953806;28;20479;-70
2022/05/03 07:08:49;;;;;;;2.90;2.00;;;13.90;1.00;;;14.07;46.36;101182.13;4954233;28;20459;-70
2022/05/03 07:11:18;;;;;;;2.17;1.97;;;14.00;1.00;;;14.27;46.33;101177.41;4954089;29;20422;-69
2022/05/03 07:13:48;;;;;;;3.37;3.00;;;14.10;1.00;;;14.38;45.44;101180.50;4953733;28;20464;-69
2022/05/03 07:16:22;;;;;;;3.37;2.30;;;14.10;1.00;;;14.09;46.28;101184.63;4954014;28;20423;-68
2022/05/03 07:24:25;;;;;;;2.73;2.30;;;14.10;1.00;;;14.03;46.61;101183.63;4953359;28;20468;-68
2022/05/03 07:27:00;;;;;;;5.33;2.30;;;14.10;1.00;;;14.11;46.96;101190.69;4953651;28;20490;-69
2022/05/03 07:29:29;;;;;;;2.87;2.07;;;14.00;1.00;;;14.31;45.72;101192.25;4953590;28;20470;-68
2022/05/03 07:31:59;;;;;;;3.07;1.57;;;14.20;1.00;;;14.49;44.28;101190.66;4953696;28;20496;-69
2022/05/03 07:34:27;;;;;;;2.43;1.43;;;14.30;1.00;;;14.34;43.43;101183.63;4953122;28;20466;-68
2022/05/03 07:36:56;;;;;;;2.33;1.53;;;14.30;1.00;;;14.51;42.98;101180.41;4953373;28;20930;-68
2022/05/03 07:39:25;;;;;;;1.93;1.57;;;14.40;1.00;;;14.82;41.75;101184.97;4953263;28;20479;-68
2022/05/03 07:41:54;;;;;;;2.90;1.90;;;14.70;1.00;;;14.93;41.56;101182.34;4953254;28;20523;-68
2022/05/03 07:44:22;;;;;;;2.90;1.40;;;14.70;1.00;;;14.92;41.89;101183.41;4953167;28;20483;-68
2022/05/03 07:46:51;;;;;;;1.80;1.50;;;14.70;1.00;;;14.66;42.33;101187.22;4953632;28;20864;-70
2022/05/03 07:49:21;;;;;;;3.77;2.03;;;14.70;1.00;;;14.40;43.13;101192.00;4956772;28;20535;-69
2022/05/03 07:51:49;;;;;;;2.23;1.60;;;14.40;1.00;;;14.51;42.85;101188.56;4957401;28;20507;-68
2022/05/03 07:54:18;;;;;;;2.80;2.50;;;14.50;1.00;;;14.59;42.86;101197.31;4957349;28;20822;-68
2022/05/03 07:56:53;;;;;;;1.70;1.27;;;14.50;1.00;;;14.60;42.61;101195.41;4957743;28;20522;-68
2022/05/03 07:59:23;;;;;;;2.20;1.60;;;14.50;1.00;;;14.82;42.47;101202.13;4956982;28;20438;-68
2022/05/03 08:01:52;;;;;;;2.80;2.17;;;14.70;1.00;;;15.20;41.80;101200.09;4956852;28;20430;-69
2022/05/03 08:04:23;;;;;;;2.93;1.90;;;15.00;1.00;;;15.17;41.14;101206.00;4956604;28;20483;-69
2022/05/03 08:06:52;;;;;;;2.80;2.43;;;15.10;1.00;;;15.31;41.18;101201.25;4956409;29;20460;-69
2022/05/03 08:09:20;;;;;;;3.03;1.83;;;15.20;1.00;;;15.64;41.28;101200.91;4955346;28;20421;-69
2022/05/03 08:11:49;;;;;;;5.70;2.10;;;15.40;1.00;;;15.61;40.69;101202.22;4957022;28;20931;-69
2022/05/03 08:14:18;;;;;;;4.20;1.70;;;15.60;1.00;;;15.51;40.96;101203.81;4957528;28;20843;-69
2022/05/03 08:16:48;;;;;;;3.10;2.00;;;15.50;1.00;;;15.55;41.56;101205.84;4957101;28;20493;-67
2022/05/03 08:19:17;;;;;;;2.80;2.40;;;15.40;1.00;;;15.57;40.93;101222.00;4957061;28;20450;-68
2022/05/03 08:21:47;;;;;;;3.17;2.40;;;15.40;1.00;;;15.52;41.30;101209.03;4957260;28;20779;-68
2022/05/03 08:24:15;;;;;;;5.53;2.33;;;15.40;1.00;;;15.92;40.37;101209.41;4958200;28;20418;-69
2022/05/03 08:26:44;;;;;;;3.87;2.70;;;15.60;1.00;;;15.60;40.24;101211.44;4959309;28;20451;-68
2022/05/03 08:29:13;;;;;;;2.77;2.47;;;15.60;1.00;;;15.67;40.74;101211.38;4959924;28;20974;-70
2022/05/03 08:31:42;;;;;;;4.17;2.63;;;15.60;1.00;;;15.53;40.58;101215.34;4963035;28;20446;-69
2022/05/03 08:34:11;;;;;;;1.90;1.60;;;15.60;1.00;;;15.61;40.22;101209.56;4965327;28;20483;-70
2022/05/03 08:36:40;;;;;;;2.13;1.80;;;15.50;1.00;;;15.78;39.81;101213.34;4961639;29;20418;-68
2022/05/03 08:42:06;;;;;;;2.57;1.83;;;15.70;1.00;;;15.94;39.93;101214.59;4956485;28;20420;-68
2022/05/03 08:44:35;;;;;;;2.03;1.80;;;15.70;1.00;;;16.20;39.98;101208.81;4956312;28;20458;-69
2022/05/03 08:47:05;;;;;;;2.30;1.90;;;16.00;1.00;;;16.26;39.29;101207.06;4956002;28;20460;-69
2022/05/03 08:49:42;;;;;;;4.10;2.40;;;16.10;1.00;;;16.09;39.61;101212.31;4956649;28;20518;-69
2022/05/03 08:52:16;;;;;;;3.13;2.23;;;16.00;1.00;;;16.00;40.43;101211.81;4956508;28;20511;-68
2022/05/03 08:54:47;;;;;;;2.63;2.00;;;15.90;1.00;;;15.93;40.62;101211.03;4958297;28;21064;-69
2022/05/03 08:57:18;;;;;;;2.93;1.60;;;15.90;1.00;;;16.40;40.09;101220.28;4958608;29;20844;-70
2022/05/03 08:59:49;;;;;;;4.23;2.10;;;16.10;1.00;;;16.15;39.96;101205.09;4958977;28;20416;-69
2022/05/03 09:02:18;;;;;;;6.70;2.10;;;16.10;1.00;;;15.98;39.52;101203.00;4957348;28;20420;-69
2022/05/03 09:04:47;;;;;;;3.40;2.10;;;16.00;1.00;;;15.91;39.78;101209.63;4955562;28;21052;-69
2022/05/03 09:07:22;;;;;;;2.20;1.90;;;15.90;1.00;;;16.00;39.69;101211.81;4955787;28;20470;-68
2022/05/03 09:09:55;;;;;;;6.83;2.73;;;15.90;1.00;;;16.26;39.42;101212.50;4955807;28;20442;-69
2022/05/03 09:12:27;;;;;;;5.63;2.30;;;16.10;1.00;;;16.41;39.00;101207.47;4955584;28;20515;-68
2022/05/03 09:14:57;;;;;;;2.07;1.70;;;16.20;1.00;;;16.46;38.44;101210.31;4956396;28;20455;-69
2022/05/03 09:17:39;;;;;;;2.13;1.93;;;16.40;1.00;;;16.60;38.81;101200.91;4955414;28;20642;-70
2022/05/03 09:26:12;;;;;;;1.70;1.40;;;16.20;1.00;;;16.56;37.17;101196.91;4955725;28;20495;-69
2022/05/03 09:28:49;;;;;;;2.20;1.37;;;16.30;1.00;;;16.67;36.40;101196.13;4957714;29;20420;-69
2022/05/03 09:31:34;;;;;;;2.37;1.90;;;16.50;1.00;;;16.70;36.27;101201.13;4964291;28;20422;-70
2022/05/03 09:34:06;;;;;;;2.90;2.13;;;16.60;1.00;;;16.57;37.14;101200.47;4964847;28;20430;-69
2022/05/03 09:36:44;;;;;;;2.40;1.70;;;16.50;1.00;;;16.85;36.57;101193.31;4964390;29;20940;-68
2022/05/03 09:39:35;;;;;;;1.80;1.60;;;16.60;1.00;;;16.69;36.55;101194.03;4965159;29;20401;-68
2022/05/03 09:42:09;;;;;;;3.50;1.87;;;16.70;1.00;;;16.62;36.35;101198.75;4964752;29;20810;-69
2022/05/03 09:44:52;;;;;;;2.40;1.70;;;16.50;1.00;;;16.48;35.96;101195.34;4965170;28;20426;-70
2022/05/03 09:47:24;;;;;;;1.40;1.00;;;16.40;1.00;;;16.69;35.69;101199.47;4964482;28;20446;-69
2022/05/03 09:49:53;;;;;;;1.90;1.20;;;16.40;1.00;;;16.86;34.02;101184.03;4963685;28;20431;-68
2022/05/03 09:52:28;;;;;;;2.40;1.70;;;16.60;1.00;;;17.03;32.73;101195.13;4963549;29;20431;-68
2022/05/03 09:55:04;;;;;;;1.73;1.10;;;16.90;1.00;;;16.93;33.26;101192.97;4963130;28;20457;-70
2022/05/03 09:57:37;;;;;;;2.73;1.20;;;16.80;1.00;;;16.94;34.52;101193.81;4962998;28;20419;-69
2022/05/03 10:00:10;;;;;;;1.97;1.30;;;16.80;1.00;;;16.52;35.13;101198.44;4954637;28;20478;-69
2022/05/03 10:02:45;;;;;;;2.20;1.50;;;16.60;1.00;;;16.77;35.58;101190.94;4954413;28;20844;-69
2022/05/03 10:05:20;;;;;;;2.47;1.10;;;16.60;1.00;;;17.37;35.41;101196.19;4954239;28;20473;-68
2022/05/03 10:07:51;;;;;;;2.77;1.57;;;16.90;1.00;;;17.57;34.16;101187.59;4954930;29;20591;-69
2022/05/03 10:10:22;;;;;;;2.13;1.57;;;17.30;1.00;;;17.42;33.91;101188.09;4955161;28;20428;-68
2022/05/03 10:12:53;;;;;;;8.63;1.93;;;17.30;1.00;;;17.10;34.87;101186.78;4953377;29;20519;-66
2022/05/03 10:21:16;;;;;;;1.70;1.17;;;17.20;1.00;;;17.43;34.07;101184.25;4955961;28;20459;-69
2022/05/03 10:24:04;;;;;;;3.70;1.50;;;17.30;1.00;;;17.29;34.41;101180.94;4956854;28;20455;-69
2022/05/03 10:27:02;;;;;;;1.60;1.17;;;17.30;1.00;;;17.25;33.24;101170.72;4954126;28;20458;-68
2022/05/03 10:29:35;;;;;;;1.70;1.13;;;17.10;1.00;;;17.29;33.54;101180.09;4955056;28;20471;-67
2022/05/03 10:32:15;;;;;;;2.20;1.30;;;17.20;1.00;;;17.35;33.39;101181.91;4956531;28;20453;-70
2022/05/03 10:34:56;;;;;;;1.30;0.97;;;17.30;1.00;;;17.20;33.75;101174.19;4954212;28;20456;-70
2022/05/03 10:38:14;;;;;;;2.70;1.90;;;17.20;1.00;;;17.22;34.13;101171.22;4954146;29;20650;-69
2022/05/03 10:40:45;;;;;;;1.43;0.97;;;17.10;1.00;;;17.34;33.70;101175.59;4894687;29;20416;-68
2022/05/03 10:43:26;;;;;;;1.50;1.00;;;17.10;1.00;;;17.75;33.09;101171.84;4941738;28;20454;-69
2022/05/03 10:45:58;;;;;;;2.53;1.20;;;17.40;1.00;;;17.90;33.53;101168.59;4953797;28;20571;-70
2022/05/03 10:48:30;;;;;;;5.33;1.53;;;17.60;1.00;;;17.55;33.53;101176.88;4953401;29;20833;-70
2022/05/03 10:51:01;;;;;;;2.77;1.33;;;17.60;1.00;;;17.44;33.48;101164.03;4953662;28;20865;-68
2022/05/03 10:53:34;;;;;;;1.90;1.00;;;17.40;1.00;;;17.59;33.35;101171.78;4953550;28;20390;-68
2022/05/03 10:56:19;;;;;;;1.60;1.17;;;17.40;1.00;;;17.63;33.18;101168.31;4953510;28;20428;-68
2022/05/03 10:59:16;;;;;;;2.23;1.20;;;17.50;1.00;;;17.79;33.38;101162.09;4953242;28;20495;-70
2022/05/03 11:02:09;;;;;;;2.40;1.10;;;17.60;1.00;;;17.67;33.81;101164.00;4953936;28;20969;-69
2022/05/03 11:05:18;;;;;;;3.47;1.70;;;17.60;1.00;;;17.65;33.95;101165.34;4968744;23;20559;-68
2022/05/03 11:08:18;;;;;;;1.53;1.17;;;17.50;1.00;;;17.62;34.41;101161.16;4955656;28;20537;-68
2022/05/03 11:10:47;;;;;;;1.43;0.80;;;17.50;1.00;;;17.90;33.81;101151.34;4950213;28;20496;-69
2022/05/03 11:13:39;;;;;;;2.47;1.20;;;17.60;1.00;;;17.96;33.76;101150.38;4953007;28;20411;-69
2022/05/03 11:16:26;;;;;;;1.80;1.00;;;17.70;1.00;;;17.96;33.63;101144.88;4934073;28;20737;-69
2022/05/03 11:18:56;;;;;;;1.37;1.00;;;17.80;1.00;;;17.61;34.24;101151.31;4933485;29;20425;-69
2022/05/03 11:21:25;;;;;;;1.40;1.17;;;17.60;1.00;;;17.78;34.45;101143.97;4933827;29;20460;-69
2022/05/03 11:23:56;;;;;;;1.57;1.00;;;17.60;1.00;;;18.12;33.71;101138.59;4936026;29;20495;-70
2022/05/03 11:26:27;;;;;;;1.40;1.20;;;17.80;1.00;;;18.05;33.98;101144.25;4937881;29;20977;-69
2022/05/03 11:29:03;;;;;;;1.40;1.00;;;17.90;1.00;;;17.96;34.05;101142.16;4937380;29;20476;-69